createdAt,value
2018-06-01T01:30:30.342Z,0.00
2018-06-01T01:30:30.846Z,0.00
2018-06-01T01:30:31.445Z,0.00
2018-06-01T01:30:32.045Z,0.00
2018-06-01T01:30:32.645Z,0.00
2018-06-01T01:30:33.246Z,0.00
2018-06-01T01:30:33.847Z,0.00
2018-06-01T01:31:27.416Z,0.00
2018-06-01T01:31:27.990Z,0.00
2018-06-01T01:31:28.592Z,0.00
2018-06-01T01:31:29.187Z,0.00
2018-06-01T01:31:29.786Z,0.00
2018-06-01T01:31:30.392Z,0.00
2018-06-01T01:31:30.986Z,0.00
2018-06-01T01:31:31.590Z,0.00
2018-06-01T01:32:25.073Z,0.00
2018-06-01T01:32:25.641Z,0.00
2018-06-01T01:32:26.246Z,0.00
2018-06-01T01:32:26.843Z,0.00
2018-06-01T01:32:27.441Z,0.00
2018-06-01T01:32:28.040Z,0.00
2018-06-01T01:32:28.641Z,0.00
2018-06-01T01:32:29.243Z,0.00
2018-06-01T01:33:23.748Z,0.00
2018-06-01T01:33:24.316Z,0.00
2018-06-01T01:33:24.920Z,0.00
2018-06-01T01:33:25.516Z,0.00
2018-06-01T01:33:26.116Z,0.00
2018-06-01T01:33:26.716Z,0.00
2018-06-01T01:33:27.316Z,0.00
2018-06-01T01:33:27.915Z,0.00
2018-06-01T01:34:21.399Z,0.00
2018-06-01T01:34:21.969Z,0.00
2018-06-01T01:34:22.571Z,0.00
2018-06-01T01:34:23.168Z,0.00
2018-06-01T01:34:23.768Z,0.00
2018-06-01T01:34:24.375Z,0.00
2018-06-01T01:34:24.967Z,0.00
2018-06-01T01:34:25.568Z,0.00
2018-06-01T01:35:19.049Z,0.00
2018-06-01T01:35:19.621Z,0.00
2018-06-01T01:35:20.220Z,0.00
2018-06-01T01:35:20.827Z,0.00
2018-06-01T01:35:21.422Z,0.00
2018-06-01T01:35:22.020Z,0.00
2018-06-01T01:35:22.620Z,0.00
2018-06-01T01:35:23.220Z,0.00
2018-06-01T01:36:17.725Z,0.00
2018-06-01T01:36:18.297Z,0.00
2018-06-01T01:36:18.899Z,0.00
2018-06-01T01:36:19.500Z,0.00
2018-06-01T01:36:20.096Z,0.00
2018-06-01T01:36:20.695Z,0.00
2018-06-01T01:36:21.297Z,0.00
2018-06-01T01:36:21.895Z,0.00
2018-06-01T01:37:15.377Z,0.00
2018-06-01T01:37:15.950Z,0.00
2018-06-01T01:37:16.550Z,0.00
2018-06-01T01:37:17.149Z,0.00
2018-06-01T01:37:17.750Z,0.00
2018-06-01T01:37:18.355Z,0.00
2018-06-01T01:37:18.949Z,0.00
2018-06-01T01:37:19.550Z,0.00
2018-06-01T01:38:13.028Z,0.00
2018-06-01T01:38:13.602Z,0.00
2018-06-01T01:38:14.202Z,0.00
2018-06-01T01:38:14.802Z,0.00
2018-06-01T01:38:15.402Z,0.00
2018-06-01T01:38:16.003Z,0.00
2018-06-01T01:38:16.600Z,0.00
2018-06-01T01:38:17.202Z,0.00
2018-06-01T01:39:10.681Z,0.00
2018-06-01T01:39:11.256Z,0.00
2018-06-01T01:39:11.855Z,0.00
2018-06-01T01:39:12.455Z,0.00
2018-06-01T01:39:13.053Z,0.00
2018-06-01T01:39:13.653Z,0.00
2018-06-01T01:39:14.255Z,0.00
2018-06-01T01:39:14.854Z,0.00
2018-06-01T01:40:09.357Z,0.00
2018-06-01T01:40:09.930Z,0.00
2018-06-01T01:40:10.531Z,0.00
2018-06-01T01:40:11.130Z,0.00
2018-06-01T01:40:11.726Z,0.00
2018-06-01T01:40:12.325Z,0.00
2018-06-01T01:40:12.939Z,0.00
2018-06-01T01:40:13.526Z,0.00
2018-06-01T01:41:08.032Z,0.00
2018-06-01T01:41:08.605Z,0.00
2018-06-01T01:41:09.204Z,0.00
2018-06-01T01:41:09.807Z,0.00
2018-06-01T01:41:10.404Z,0.00
2018-06-01T01:41:11.003Z,0.00
2018-06-01T01:41:11.604Z,0.00
2018-06-01T01:41:12.204Z,0.00
2018-06-01T01:42:06.712Z,0.00
2018-06-01T01:42:07.280Z,0.00
2018-06-01T01:42:07.879Z,0.00
2018-06-01T01:42:08.479Z,0.00
2018-06-01T01:42:09.079Z,0.00
2018-06-01T01:42:09.678Z,0.00
2018-06-01T01:42:10.280Z,0.00
2018-06-01T01:42:10.879Z,0.00
2018-06-01T01:43:04.360Z,0.00
2018-06-01T01:43:04.932Z,0.00
2018-06-01T01:43:05.535Z,0.00
2018-06-01T01:43:06.132Z,0.00
2018-06-01T01:43:06.732Z,0.00
2018-06-01T01:43:07.331Z,0.00
2018-06-01T01:43:07.933Z,0.00
2018-06-01T01:43:08.532Z,0.00
2018-06-01T01:44:02.013Z,0.00
2018-06-01T01:44:02.586Z,0.00
2018-06-01T01:44:03.185Z,0.00
2018-06-01T01:44:03.786Z,0.00
2018-06-01T01:44:04.384Z,0.00
2018-06-01T01:44:04.986Z,0.00
2018-06-01T01:44:05.585Z,0.00
2018-06-01T01:44:06.185Z,0.00
2018-06-01T01:44:59.664Z,0.00
2018-06-01T01:45:00.239Z,0.00
2018-06-01T01:45:00.840Z,0.00
2018-06-01T01:45:01.436Z,0.00
2018-06-01T01:45:02.036Z,0.00
2018-06-01T01:45:02.638Z,0.00
2018-06-01T01:45:03.239Z,0.00
2018-06-01T01:45:03.836Z,0.00
2018-06-01T01:45:57.417Z,0.00
2018-06-01T01:45:57.991Z,0.00
2018-06-01T01:45:58.591Z,0.00
2018-06-01T01:45:59.191Z,0.00
2018-06-01T01:45:59.790Z,0.00
2018-06-01T01:46:00.391Z,0.00
2018-06-01T01:46:00.991Z,0.00
2018-06-01T01:46:01.595Z,0.00
2018-06-01T01:46:55.071Z,0.00
2018-06-01T01:46:55.642Z,0.00
2018-06-01T01:46:56.242Z,0.00
2018-06-01T01:46:56.843Z,0.00
2018-06-01T01:46:57.441Z,0.00
2018-06-01T01:46:58.043Z,0.00
2018-06-01T01:46:58.644Z,0.00
2018-06-01T01:46:59.242Z,0.00
2018-06-01T01:47:52.826Z,0.00
2018-06-01T01:47:53.396Z,0.00
2018-06-01T01:47:54.008Z,0.00
2018-06-01T01:47:54.595Z,0.00
2018-06-01T01:47:55.196Z,0.00
2018-06-01T01:47:55.797Z,0.00
2018-06-01T01:47:56.401Z,0.00
2018-06-01T01:47:56.996Z,0.00
2018-06-01T01:48:51.503Z,0.00
2018-06-01T01:48:52.071Z,0.00
2018-06-01T01:48:52.671Z,0.00
2018-06-01T01:48:53.271Z,0.00
2018-06-01T01:48:53.870Z,0.00
2018-06-01T01:48:54.469Z,0.00
2018-06-01T01:48:55.069Z,0.00
2018-06-01T01:48:55.670Z,0.00
2018-06-01T01:49:50.176Z,0.00
2018-06-01T01:49:50.747Z,0.00
2018-06-01T01:49:51.347Z,0.00
2018-06-01T01:49:51.947Z,0.00
2018-06-01T01:49:52.549Z,0.00
2018-06-01T01:49:53.146Z,0.00
2018-06-01T01:49:53.747Z,0.00
2018-06-01T01:49:54.358Z,0.00
2018-06-01T01:50:47.828Z,0.00
2018-06-01T01:50:48.400Z,0.00
2018-06-01T01:50:49.000Z,0.00
2018-06-01T01:50:49.599Z,0.00
2018-06-01T01:50:50.204Z,0.00
2018-06-01T01:50:50.801Z,0.00
2018-06-01T01:50:51.399Z,0.00
2018-06-01T01:50:51.998Z,0.00
2018-06-01T01:51:46.508Z,0.00
2018-06-01T01:51:47.076Z,0.00
2018-06-01T01:51:47.675Z,0.00
2018-06-01T01:51:48.276Z,0.00
2018-06-01T01:51:48.874Z,0.00
2018-06-01T01:51:49.476Z,0.00
2018-06-01T01:51:50.085Z,0.00
2018-06-01T01:51:50.675Z,0.00
2018-06-01T01:52:44.157Z,0.00
2018-06-01T01:52:44.733Z,0.00
2018-06-01T01:52:45.329Z,0.00
2018-06-01T01:52:45.928Z,0.00
2018-06-01T01:52:46.527Z,0.00
2018-06-01T01:52:47.128Z,0.00
2018-06-01T01:52:47.728Z,0.00
2018-06-01T01:52:48.328Z,0.00
2018-06-01T01:53:42.832Z,0.00
2018-06-01T01:53:43.402Z,0.00
2018-06-01T01:53:44.002Z,0.00
2018-06-01T01:53:44.601Z,0.00
2018-06-01T01:53:45.203Z,0.00
2018-06-01T01:53:45.807Z,0.00
2018-06-01T01:53:46.402Z,0.00
2018-06-01T01:53:47.004Z,0.00
2018-06-01T01:54:41.507Z,0.00
2018-06-01T01:54:42.079Z,0.00
2018-06-01T01:54:42.682Z,0.00
2018-06-01T01:54:43.281Z,0.00
2018-06-01T01:54:43.879Z,0.00
2018-06-01T01:54:44.478Z,0.00
2018-06-01T01:54:45.082Z,0.00
2018-06-01T01:54:45.678Z,0.00
2018-06-01T01:55:39.261Z,0.00
2018-06-01T01:55:39.838Z,0.00
2018-06-01T01:55:40.435Z,0.00
2018-06-01T01:55:41.035Z,0.00
2018-06-01T01:55:41.636Z,0.00
2018-06-01T01:55:42.236Z,0.00
2018-06-01T01:55:42.834Z,0.00
2018-06-01T01:55:43.435Z,0.00
2018-06-01T01:56:37.938Z,0.00
2018-06-01T01:56:38.510Z,0.00
2018-06-01T01:56:39.109Z,0.00
2018-06-01T01:56:39.710Z,0.00
2018-06-01T01:56:40.309Z,0.00
2018-06-01T01:56:40.908Z,0.00
2018-06-01T01:56:41.511Z,0.00
2018-06-01T01:56:42.109Z,0.00
2018-06-01T01:57:35.590Z,0.00
2018-06-01T01:57:36.162Z,0.00
2018-06-01T01:57:36.762Z,0.00
2018-06-01T01:57:37.362Z,0.00
2018-06-01T01:57:37.962Z,0.00
2018-06-01T01:57:38.562Z,0.00
2018-06-01T01:57:39.162Z,0.00
2018-06-01T01:57:39.766Z,0.00
2018-06-01T01:58:34.266Z,0.00
2018-06-01T01:58:34.837Z,0.00
2018-06-01T01:58:35.436Z,0.00
2018-06-01T01:58:36.037Z,0.00
2018-06-01T01:58:36.637Z,0.00
2018-06-01T01:58:37.236Z,0.00
2018-06-01T01:58:37.836Z,0.00
2018-06-01T01:58:38.437Z,0.00
2018-06-01T01:59:31.920Z,0.00
2018-06-01T01:59:32.491Z,0.00
2018-06-01T01:59:33.090Z,0.00
2018-06-01T01:59:33.690Z,0.00
2018-06-01T01:59:34.293Z,0.00
2018-06-01T01:59:34.889Z,0.00
2018-06-01T01:59:35.490Z,0.00
2018-06-01T01:59:36.093Z,0.00
2018-06-01T02:00:30.593Z,0.00
2018-06-01T02:00:31.164Z,0.00
2018-06-01T02:00:31.768Z,0.00
2018-06-01T02:00:32.362Z,0.00
2018-06-01T02:00:32.962Z,0.00
2018-06-01T02:00:33.564Z,0.00
2018-06-01T02:00:34.166Z,0.00
2018-06-01T02:00:34.763Z,0.00
2018-06-01T02:01:28.347Z,0.00
2018-06-01T02:01:28.919Z,0.00
2018-06-01T02:01:29.519Z,0.00
2018-06-01T02:01:30.120Z,0.00
2018-06-01T02:01:30.720Z,0.00
2018-06-01T02:01:31.319Z,0.00
2018-06-01T02:01:31.919Z,0.00
2018-06-01T02:01:32.520Z,0.00
2018-06-01T02:02:27.024Z,0.00
2018-06-01T02:02:27.593Z,0.00
2018-06-01T02:02:28.194Z,0.00
2018-06-01T02:02:28.794Z,0.00
2018-06-01T02:02:29.394Z,0.00
2018-06-01T02:02:29.994Z,0.00
2018-06-01T02:02:30.595Z,0.00
2018-06-01T02:02:31.194Z,0.00
2018-06-01T02:03:25.698Z,0.00
2018-06-01T02:03:26.270Z,0.00
2018-06-01T02:03:26.870Z,0.00
2018-06-01T02:03:27.471Z,0.00
2018-06-01T02:03:28.075Z,0.00
2018-06-01T02:03:28.670Z,0.00
2018-06-01T02:03:29.270Z,0.00
2018-06-01T02:03:29.871Z,0.00
2018-06-01T02:04:23.455Z,0.00
2018-06-01T02:04:24.026Z,0.00
2018-06-01T02:04:24.626Z,0.00
2018-06-01T02:04:25.225Z,0.00
2018-06-01T02:04:25.825Z,0.00
2018-06-01T02:04:26.429Z,0.00
2018-06-01T02:04:27.027Z,0.00
2018-06-01T02:04:27.625Z,0.00
2018-06-01T02:05:21.209Z,0.00
2018-06-01T02:05:21.784Z,0.00
2018-06-01T02:05:22.380Z,0.00
2018-06-01T02:05:22.979Z,0.00
2018-06-01T02:05:23.579Z,0.00
2018-06-01T02:05:24.179Z,0.00
2018-06-01T02:05:24.780Z,0.00
2018-06-01T02:05:25.378Z,0.00
2018-06-01T02:06:18.962Z,0.00
2018-06-01T02:06:19.534Z,0.00
2018-06-01T02:06:20.134Z,0.00
2018-06-01T02:06:20.733Z,0.00
2018-06-01T02:06:21.335Z,0.00
2018-06-01T02:06:21.935Z,0.00
2018-06-01T02:06:22.537Z,0.00
2018-06-01T02:06:23.133Z,0.00
2018-06-01T02:07:16.716Z,0.00
2018-06-01T02:07:17.288Z,0.00
2018-06-01T02:07:17.887Z,0.00
2018-06-01T02:07:18.523Z,0.00
2018-06-01T02:07:19.088Z,0.00
2018-06-01T02:07:19.691Z,0.00
2018-06-01T02:07:20.287Z,0.00
2018-06-01T02:07:20.888Z,0.00
2018-06-01T02:08:14.366Z,0.00
2018-06-01T02:08:14.939Z,0.00
2018-06-01T02:08:15.541Z,0.00
2018-06-01T02:08:16.139Z,0.00
2018-06-01T02:08:16.739Z,0.00
2018-06-01T02:08:17.339Z,0.00
2018-06-01T02:08:17.939Z,0.00
2018-06-01T02:08:18.539Z,0.00
2018-06-01T02:09:13.043Z,0.00
2018-06-01T02:09:13.615Z,0.00
2018-06-01T02:09:14.216Z,0.00
2018-06-01T02:09:14.815Z,0.00
2018-06-01T02:09:15.417Z,0.00
2018-06-01T02:09:16.016Z,0.00
2018-06-01T02:09:16.616Z,0.00
2018-06-01T02:09:17.216Z,0.00
2018-06-01T02:10:10.694Z,0.00
2018-06-01T02:10:11.267Z,0.00
2018-06-01T02:10:11.868Z,0.00
2018-06-01T02:10:12.492Z,0.00
2018-06-01T02:10:13.068Z,0.00
2018-06-01T02:10:13.672Z,0.00
2018-06-01T02:10:14.267Z,0.00
2018-06-01T02:10:14.866Z,0.00
2018-06-01T02:11:08.450Z,0.00
2018-06-01T02:11:09.021Z,0.00
2018-06-01T02:11:09.622Z,0.00
2018-06-01T02:11:10.221Z,0.00
2018-06-01T02:11:10.820Z,0.00
2018-06-01T02:11:11.424Z,0.00
2018-06-01T02:11:12.023Z,0.00
2018-06-01T02:11:12.623Z,0.00
2018-06-01T02:12:07.126Z,0.00
2018-06-01T02:12:07.696Z,0.00
2018-06-01T02:12:08.295Z,0.00
2018-06-01T02:12:08.894Z,0.00
2018-06-01T02:12:09.495Z,0.00
2018-06-01T02:12:10.094Z,0.00
2018-06-01T02:12:10.695Z,0.00
2018-06-01T02:12:11.294Z,0.00
2018-06-01T02:13:04.878Z,0.00
2018-06-01T02:13:05.455Z,0.00
2018-06-01T02:13:06.051Z,0.00
2018-06-01T02:13:06.652Z,0.00
2018-06-01T02:13:07.251Z,0.00
2018-06-01T02:13:07.855Z,0.00
2018-06-01T02:13:08.451Z,0.00
2018-06-01T02:13:09.051Z,0.00
2018-06-01T02:14:03.556Z,0.00
2018-06-01T02:14:04.124Z,0.00
2018-06-01T02:14:04.726Z,0.00
2018-06-01T02:14:05.325Z,0.00
2018-06-01T02:14:05.925Z,0.00
2018-06-01T02:14:06.525Z,0.00
2018-06-01T02:14:07.124Z,0.00
2018-06-01T02:14:07.725Z,0.00
2018-06-01T02:15:02.241Z,0.00
2018-06-01T02:15:02.804Z,0.00
2018-06-01T02:15:03.404Z,0.00
2018-06-01T02:15:04.006Z,0.00
2018-06-01T02:15:04.603Z,0.00
2018-06-01T02:15:05.206Z,0.00
2018-06-01T02:15:05.803Z,0.00
2018-06-01T02:15:06.404Z,0.00
2018-06-01T02:15:59.986Z,0.00
2018-06-01T02:16:00.490Z,0.00
2018-06-01T02:16:01.080Z,0.00
2018-06-01T02:16:01.681Z,0.00
2018-06-01T02:16:02.281Z,0.00
2018-06-01T02:16:02.881Z,0.00
2018-06-01T02:16:03.481Z,0.00
2018-06-01T02:16:04.085Z,0.00
2018-06-01T02:16:58.559Z,0.00
2018-06-01T02:16:59.133Z,0.00
2018-06-01T02:16:59.730Z,0.00
2018-06-01T02:17:00.329Z,0.00
2018-06-01T02:17:00.931Z,0.00
2018-06-01T02:17:01.529Z,0.00
2018-06-01T02:17:02.131Z,0.00
2018-06-01T02:17:02.729Z,0.00
2018-06-01T02:17:57.233Z,0.00
2018-06-01T02:17:57.804Z,0.00
2018-06-01T02:17:58.405Z,0.00
2018-06-01T02:17:59.004Z,0.00
2018-06-01T02:17:59.607Z,0.00
2018-06-01T02:18:00.204Z,0.00
2018-06-01T02:18:00.803Z,0.00
2018-06-01T02:18:01.404Z,0.00
2018-06-01T02:18:55.952Z,0.00
2018-06-01T02:18:56.480Z,0.00
2018-06-01T02:18:57.079Z,0.00
2018-06-01T02:18:57.679Z,0.00
2018-06-01T02:18:58.282Z,0.00
2018-06-01T02:18:58.880Z,0.00
2018-06-01T02:18:59.479Z,0.00
2018-06-01T02:19:00.084Z,0.00
2018-06-01T02:19:53.562Z,0.00
2018-06-01T02:19:54.134Z,0.00
2018-06-01T02:19:54.735Z,0.00
2018-06-01T02:19:55.333Z,0.00
2018-06-01T02:19:55.934Z,0.00
2018-06-01T02:19:56.538Z,0.00
2018-06-01T02:19:57.138Z,0.00
2018-06-01T02:19:57.734Z,0.00
2018-06-01T02:20:51.315Z,0.00
2018-06-01T02:20:51.888Z,0.00
2018-06-01T02:20:52.487Z,0.00
2018-06-01T02:20:53.088Z,0.00
2018-06-01T02:20:53.688Z,0.00
2018-06-01T02:20:54.291Z,0.00
2018-06-01T02:20:54.888Z,0.00
2018-06-01T02:20:55.487Z,0.00
2018-06-01T02:21:49.991Z,0.00
2018-06-01T02:21:50.561Z,0.00
2018-06-01T02:21:51.160Z,0.00
2018-06-01T02:21:51.760Z,0.00
2018-06-01T02:21:52.360Z,0.00
2018-06-01T02:21:53.010Z,0.00
2018-06-01T02:21:53.560Z,0.00
2018-06-01T02:21:54.161Z,0.00
2018-06-01T02:22:47.644Z,0.00
2018-06-01T02:22:48.213Z,0.00
2018-06-01T02:22:48.812Z,0.00
2018-06-01T02:22:49.412Z,0.00
2018-06-01T02:22:50.013Z,0.00
2018-06-01T02:22:50.613Z,0.00
2018-06-01T02:22:51.212Z,0.00
2018-06-01T02:22:51.815Z,0.00
2018-06-01T02:23:46.318Z,0.00
2018-06-01T02:23:46.890Z,0.00
2018-06-01T02:23:47.490Z,0.00
2018-06-01T02:23:48.090Z,0.00
2018-06-01T02:23:48.693Z,0.00
2018-06-01T02:23:49.292Z,0.00
2018-06-01T02:23:49.887Z,0.00
2018-06-01T02:23:50.488Z,0.00
2018-06-01T02:24:44.993Z,0.00
2018-06-01T02:24:45.565Z,0.00
2018-06-01T02:24:46.166Z,0.00
2018-06-01T02:24:46.765Z,0.00
2018-06-01T02:24:47.364Z,0.00
2018-06-01T02:24:47.964Z,0.00
2018-06-01T02:24:48.565Z,0.00
2018-06-01T02:24:49.165Z,0.00
2018-06-01T02:25:43.670Z,0.00
2018-06-01T02:25:44.243Z,0.00
2018-06-01T02:25:44.842Z,0.00
2018-06-01T02:25:45.442Z,0.00
2018-06-01T02:25:46.044Z,0.00
2018-06-01T02:25:46.646Z,0.00
2018-06-01T02:25:47.242Z,0.00
2018-06-01T02:25:47.841Z,0.00
2018-06-01T02:26:42.345Z,0.00
2018-06-01T02:26:42.919Z,0.00
2018-06-01T02:26:43.523Z,0.00
2018-06-01T02:26:44.117Z,0.00
2018-06-01T02:26:44.717Z,0.00
2018-06-01T02:26:45.316Z,0.00
2018-06-01T02:26:45.920Z,0.00
2018-06-01T02:26:46.518Z,0.00
2018-06-01T02:27:41.021Z,0.00
2018-06-01T02:27:41.592Z,0.00
2018-06-01T02:27:42.195Z,0.00
2018-06-01T02:27:42.792Z,0.00
2018-06-01T02:27:43.392Z,0.00
2018-06-01T02:27:43.991Z,0.00
2018-06-01T02:27:44.594Z,0.00
2018-06-01T02:27:45.192Z,0.00
2018-06-01T02:28:38.775Z,0.00
2018-06-01T02:28:39.348Z,0.00
2018-06-01T02:28:39.950Z,0.00
2018-06-01T02:28:40.548Z,0.00
2018-06-01T02:28:41.147Z,0.00
2018-06-01T02:28:41.750Z,0.00
2018-06-01T02:28:42.346Z,0.00
2018-06-01T02:28:42.947Z,0.00
2018-06-01T02:29:37.451Z,0.00
2018-06-01T02:29:38.023Z,0.00
2018-06-01T02:29:38.622Z,0.00
2018-06-01T02:29:39.222Z,0.00
2018-06-01T02:29:39.822Z,0.00
2018-06-01T02:29:40.424Z,0.00
2018-06-01T02:29:41.025Z,0.00
2018-06-01T02:29:41.622Z,0.00
2018-06-01T02:30:36.127Z,0.00
2018-06-01T02:30:36.698Z,0.00
2018-06-01T02:30:37.298Z,0.00
2018-06-01T02:30:37.902Z,0.00
2018-06-01T02:30:38.497Z,0.00
2018-06-01T02:30:39.112Z,0.00
2018-06-01T02:30:39.699Z,0.00
2018-06-01T02:30:40.303Z,0.00
2018-06-01T02:31:34.803Z,0.00
2018-06-01T02:31:35.374Z,0.00
2018-06-01T02:31:35.974Z,0.00
2018-06-01T02:31:36.573Z,0.00
2018-06-01T02:31:37.174Z,0.00
2018-06-01T02:31:37.775Z,0.00
2018-06-01T02:31:38.373Z,0.00
2018-06-01T02:31:38.973Z,0.00
2018-06-01T02:32:32.556Z,0.00
2018-06-01T02:32:33.129Z,0.00
2018-06-01T02:32:33.729Z,0.00
2018-06-01T02:32:34.328Z,0.00
2018-06-01T02:32:34.928Z,0.00
2018-06-01T02:32:35.533Z,0.00
2018-06-01T02:32:36.129Z,0.00
2018-06-01T02:32:36.728Z,0.00
2018-06-01T02:33:30.208Z,0.00
2018-06-01T02:33:30.781Z,0.00
2018-06-01T02:33:31.380Z,0.00
2018-06-01T02:33:31.980Z,0.00
2018-06-01T02:33:32.579Z,0.00
2018-06-01T02:33:33.183Z,0.00
2018-06-01T02:33:33.780Z,0.00
2018-06-01T02:33:34.380Z,0.00
2018-06-01T02:34:27.961Z,0.00
2018-06-01T02:34:28.539Z,0.00
2018-06-01T02:34:29.145Z,0.00
2018-06-01T02:34:29.736Z,0.00
2018-06-01T02:34:30.335Z,0.00
2018-06-01T02:34:30.936Z,0.00
2018-06-01T02:34:31.535Z,0.00
2018-06-01T02:34:32.134Z,0.00
2018-06-01T02:35:25.722Z,0.00
2018-06-01T02:35:26.287Z,0.00
2018-06-01T02:35:26.887Z,0.00
2018-06-01T02:35:27.489Z,0.00
2018-06-01T02:35:28.087Z,0.00
2018-06-01T02:35:28.691Z,0.00
2018-06-01T02:35:29.288Z,0.00
2018-06-01T02:35:29.888Z,0.00
2018-06-01T02:36:24.393Z,0.00
2018-06-01T02:36:24.963Z,0.00
2018-06-01T02:36:25.561Z,0.00
2018-06-01T02:36:26.161Z,0.00
2018-06-01T02:36:26.764Z,0.00
2018-06-01T02:36:27.363Z,0.00
2018-06-01T02:36:27.962Z,0.00
2018-06-01T02:36:28.562Z,0.00
2018-06-01T02:37:23.067Z,0.00
2018-06-01T02:37:23.639Z,0.00
2018-06-01T02:37:24.240Z,0.00
2018-06-01T02:37:24.842Z,0.00
2018-06-01T02:37:25.439Z,0.00
2018-06-01T02:37:26.039Z,0.00
2018-06-01T02:37:26.640Z,0.00
2018-06-01T02:37:27.239Z,0.00
2018-06-01T02:38:21.743Z,0.00
2018-06-01T02:38:22.316Z,0.00
2018-06-01T02:38:22.915Z,0.00
2018-06-01T02:38:23.515Z,0.00
2018-06-01T02:38:24.116Z,0.00
2018-06-01T02:38:24.718Z,0.00
2018-06-01T02:38:25.315Z,0.00
2018-06-01T02:38:25.914Z,0.00
2018-06-01T02:39:19.397Z,0.00
2018-06-01T02:39:19.966Z,0.00
2018-06-01T02:39:20.567Z,0.00
2018-06-01T02:39:21.167Z,0.00
2018-06-01T02:39:21.767Z,0.00
2018-06-01T02:39:22.369Z,0.00
2018-06-01T02:39:22.971Z,0.00
2018-06-01T02:39:23.571Z,0.00
2018-06-01T02:40:17.138Z,0.00
2018-06-01T02:40:17.651Z,0.00
2018-06-01T02:40:18.259Z,0.00
2018-06-01T02:40:18.843Z,0.00
2018-06-01T02:40:19.447Z,0.00
2018-06-01T02:40:20.041Z,0.00
2018-06-01T02:40:20.642Z,0.00
2018-06-01T02:40:21.240Z,0.00
2018-06-01T02:41:15.720Z,0.00
2018-06-01T02:41:16.300Z,0.00
2018-06-01T02:41:16.894Z,0.00
2018-06-01T02:41:17.493Z,0.00
2018-06-01T02:41:18.095Z,0.00
2018-06-01T02:41:18.695Z,0.00
2018-06-01T02:41:19.301Z,0.00
2018-06-01T02:41:19.895Z,0.00
2018-06-01T02:42:18.460Z,0.00
2018-06-01T05:45:00.916Z,855.00
2018-06-01T05:45:01.493Z,855.00
2018-06-01T05:45:02.087Z,855.00
2018-06-01T05:45:02.685Z,855.00
2018-06-01T05:45:03.297Z,855.00
2018-06-01T05:45:03.884Z,855.00
2018-06-01T05:45:04.485Z,855.00
2018-06-01T05:45:05.083Z,855.00
2018-06-01T05:45:59.598Z,826.88
2018-06-01T05:46:00.162Z,826.88
2018-06-01T05:46:00.766Z,826.88
2018-06-01T05:46:01.360Z,826.88
2018-06-01T05:46:01.961Z,832.50
2018-06-01T05:46:02.562Z,826.88
2018-06-01T05:46:03.160Z,826.88
2018-06-01T05:46:03.762Z,826.88
2018-06-01T05:46:58.268Z,804.38
2018-06-01T05:46:58.837Z,804.38
2018-06-01T05:46:59.439Z,804.38
2018-06-01T05:47:00.039Z,798.75
2018-06-01T05:47:00.643Z,798.75
2018-06-01T05:47:01.238Z,798.75
2018-06-01T05:47:01.838Z,804.38
2018-06-01T05:47:02.440Z,804.38
2018-06-01T05:47:56.943Z,748.13
2018-06-01T05:47:57.515Z,742.50
2018-06-01T05:47:58.115Z,748.13
2018-06-01T05:47:58.714Z,748.13
2018-06-01T05:47:59.314Z,748.13
2018-06-01T05:47:59.917Z,748.13
2018-06-01T05:48:00.512Z,748.13
2018-06-01T05:48:01.114Z,748.13
2018-06-01T05:48:55.621Z,579.38
2018-06-01T05:48:56.191Z,641.25
2018-06-01T05:48:56.791Z,680.63
2018-06-01T05:48:57.391Z,697.50
2018-06-01T05:48:57.990Z,703.13
2018-06-01T05:48:58.591Z,708.75
2018-06-01T05:48:59.192Z,708.75
2018-06-01T05:48:59.791Z,708.75
2018-06-01T05:49:53.372Z,703.13
2018-06-01T05:49:53.948Z,703.13
2018-06-01T05:49:54.547Z,703.13
2018-06-01T05:49:55.147Z,703.13
2018-06-01T05:49:55.751Z,703.13
2018-06-01T05:49:56.347Z,703.13
2018-06-01T05:49:56.959Z,697.50
2018-06-01T05:49:57.546Z,691.88
2018-06-01T05:50:51.131Z,691.88
2018-06-01T05:50:51.702Z,691.88
2018-06-01T05:50:52.300Z,691.88
2018-06-01T05:50:52.901Z,691.88
2018-06-01T05:50:53.502Z,691.88
2018-06-01T05:50:54.101Z,691.88
2018-06-01T05:50:54.703Z,691.88
2018-06-01T05:50:55.301Z,691.88
2018-06-01T05:51:48.884Z,669.38
2018-06-01T05:51:49.456Z,680.63
2018-06-01T05:51:50.056Z,686.25
2018-06-01T05:51:50.656Z,697.50
2018-06-01T05:51:51.256Z,697.50
2018-06-01T05:51:51.860Z,697.50
2018-06-01T05:51:52.456Z,697.50
2018-06-01T05:51:53.056Z,697.50
2018-06-01T05:52:46.638Z,708.75
2018-06-01T05:52:47.209Z,703.13
2018-06-01T05:52:47.812Z,703.13
2018-06-01T05:52:48.410Z,703.13
2018-06-01T05:52:49.012Z,703.13
2018-06-01T05:52:49.612Z,708.75
2018-06-01T05:52:50.210Z,708.75
2018-06-01T05:52:50.812Z,703.13
2018-06-01T05:53:44.397Z,708.75
2018-06-01T05:53:44.963Z,708.75
2018-06-01T05:53:45.563Z,708.75
2018-06-01T05:53:46.163Z,708.75
2018-06-01T05:53:46.764Z,708.75
2018-06-01T05:53:47.366Z,708.75
2018-06-01T05:53:47.963Z,708.75
2018-06-01T05:53:48.564Z,708.75
2018-06-01T05:54:42.657Z,714.38
2018-06-01T05:54:43.229Z,708.75
2018-06-01T05:54:43.829Z,714.38
2018-06-01T05:54:44.430Z,708.75
2018-06-01T05:54:45.029Z,714.38
2018-06-01T05:54:45.632Z,714.38
2018-06-01T05:54:46.232Z,720.00
2018-06-01T05:55:39.803Z,714.38
2018-06-01T05:55:40.370Z,720.00
2018-06-01T05:55:40.970Z,714.38
2018-06-01T05:55:41.570Z,720.00
2018-06-01T05:55:42.170Z,714.38
2018-06-01T05:55:42.770Z,714.38
2018-06-01T05:55:43.370Z,714.38
2018-06-01T05:55:43.973Z,720.00
2018-06-01T05:56:38.477Z,720.00
2018-06-01T05:56:39.052Z,720.00
2018-06-01T05:56:39.644Z,720.00
2018-06-01T05:56:40.244Z,720.00
2018-06-01T05:56:40.845Z,720.00
2018-06-01T05:56:41.445Z,720.00
2018-06-01T05:56:42.045Z,720.00
2018-06-01T05:56:42.644Z,720.00
2018-06-01T05:57:36.227Z,714.38
2018-06-01T05:57:36.805Z,714.38
2018-06-01T05:57:37.400Z,714.38
2018-06-01T05:57:38.000Z,714.38
2018-06-01T05:57:38.601Z,720.00
2018-06-01T05:57:39.200Z,714.38
2018-06-01T05:57:39.803Z,714.38
2018-06-01T05:57:40.403Z,714.38
2018-06-01T05:58:34.908Z,708.75
2018-06-01T05:58:35.476Z,708.75
2018-06-01T05:58:36.081Z,708.75
2018-06-01T05:58:36.674Z,708.75
2018-06-01T05:58:37.275Z,708.75
2018-06-01T05:58:37.876Z,708.75
2018-06-01T05:58:38.475Z,708.75
2018-06-01T05:58:39.076Z,708.75
2018-06-01T05:59:32.660Z,708.75
2018-06-01T05:59:33.233Z,708.75
2018-06-01T05:59:33.830Z,708.75
2018-06-01T05:59:34.431Z,714.38
2018-06-01T05:59:35.031Z,708.75
2018-06-01T05:59:35.630Z,708.75
2018-06-01T05:59:36.230Z,708.75
2018-06-01T05:59:36.831Z,708.75
2018-06-01T06:00:31.334Z,708.75
2018-06-01T06:00:31.904Z,708.75
2018-06-01T06:00:32.504Z,708.75
2018-06-01T06:00:33.105Z,708.75
2018-06-01T06:00:33.707Z,708.75
2018-06-01T06:00:34.308Z,708.75
2018-06-01T06:00:34.919Z,708.75
2018-06-01T06:00:35.505Z,708.75
2018-06-01T06:01:29.091Z,714.38
2018-06-01T06:01:29.665Z,714.38
2018-06-01T06:01:30.261Z,714.38
2018-06-01T06:01:30.865Z,714.38
2018-06-01T06:01:31.461Z,714.38
2018-06-01T06:01:32.062Z,714.38
2018-06-01T06:01:32.661Z,714.38
2018-06-01T06:01:33.260Z,714.38
2018-06-01T06:02:26.841Z,720.00
2018-06-01T06:02:27.418Z,720.00
2018-06-01T06:02:28.014Z,720.00
2018-06-01T06:02:28.622Z,720.00
2018-06-01T06:02:29.215Z,720.00
2018-06-01T06:02:29.815Z,720.00
2018-06-01T06:02:30.414Z,720.00
2018-06-01T06:02:31.014Z,720.00
2018-06-01T06:03:24.599Z,725.63
2018-06-01T06:03:25.169Z,725.63
2018-06-01T06:03:25.769Z,725.63
2018-06-01T06:03:26.376Z,725.63
2018-06-01T06:03:26.969Z,725.63
2018-06-01T06:03:27.569Z,725.63
2018-06-01T06:03:28.168Z,725.63
2018-06-01T06:03:28.782Z,725.63
2018-06-01T06:04:22.349Z,725.63
2018-06-01T06:04:22.924Z,725.63
2018-06-01T06:04:23.522Z,725.63
2018-06-01T06:04:24.126Z,725.63
2018-06-01T06:04:24.722Z,725.63
2018-06-01T06:04:25.364Z,731.25
2018-06-01T06:04:25.924Z,725.63
2018-06-01T06:04:26.522Z,725.63
2018-06-01T06:05:21.027Z,731.25
2018-06-01T06:05:21.599Z,736.88
2018-06-01T06:05:22.196Z,731.25
2018-06-01T06:05:22.798Z,731.25
2018-06-01T06:05:23.398Z,731.25
2018-06-01T06:05:23.997Z,731.25
2018-06-01T06:05:24.598Z,731.25
2018-06-01T06:05:25.198Z,731.25
2018-06-01T06:06:19.700Z,736.88
2018-06-01T06:06:20.273Z,736.88
2018-06-01T06:06:20.872Z,736.88
2018-06-01T06:06:21.472Z,736.88
2018-06-01T06:06:22.075Z,736.88
2018-06-01T06:06:22.673Z,736.88
2018-06-01T06:06:23.274Z,736.88
2018-06-01T06:06:23.872Z,736.88
2018-06-01T06:07:17.458Z,742.50
2018-06-01T06:07:18.031Z,742.50
2018-06-01T06:07:18.628Z,742.50
2018-06-01T06:07:19.229Z,742.50
2018-06-01T06:07:19.829Z,742.50
2018-06-01T06:07:20.429Z,742.50
2018-06-01T06:07:21.028Z,742.50
2018-06-01T06:07:21.638Z,742.50
2018-06-01T06:08:15.210Z,748.13
2018-06-01T06:08:15.784Z,748.13
2018-06-01T06:08:16.383Z,748.13